sensor_id;sensor_type;location;lat;lon;timestamp;P1;durP1;ratioP1;P2;durP2;ratioP2
8413;SDS011;4244;48.684;9.028;2022-12-13T00:01:51;21.10;;;17.50;;
8413;SDS011;4244;48.684;9.028;2022-12-13T00:04:18;25.50;;;18.00;;
8413;SDS011;4244;48.684;9.028;2022-12-13T00:06:45;20.80;;;17.27;;
8413;SDS011;4244;48.684;9.028;2022-12-13T00:09:14;24.90;;;19.13;;
8413;SDS011;4244;48.684;9.028;2022-12-13T00:11:42;21.87;;;17.70;;
8413;SDS011;4244;48.684;9.028;2022-12-13T00:14:08;26.43;;;19.50;;
8413;SDS011;4244;48.684;9.028;2022-12-13T00:16:33;28.30;;;20.00;;
8413;SDS011;4244;48.684;9.028;2022-12-13T00:19:02;23.53;;;18.30;;
8413;SDS011;4244;48.684;9.028;2022-12-13T00:21:28;23.63;;;18.97;;
8413;SDS011;4244;48.684;9.028;2022-12-13T00:23:55;24.57;;;18.23;;
8413;SDS011;4244;48.684;9.028;2022-12-13T00:26:23;20.97;;;17.00;;
8413;SDS011;4244;48.684;9.028;2022-12-13T00:28:50;28.17;;;20.10;;
8413;SDS011;4244;48.684;9.028;2022-12-13T00:31:17;21.77;;;17.87;;
8413;SDS011;4244;48.684;9.028;2022-12-13T00:33:43;22.10;;;17.93;;
8413;SDS011;4244;48.684;9.028;2022-12-13T00:36:09;24.70;;;18.83;;
8413;SDS011;4244;48.684;9.028;2022-12-13T00:38:35;22.90;;;17.73;;
8413;SDS011;4244;48.684;9.028;2022-12-13T00:43:36;22.40;;;17.43;;
8413;SDS011;4244;48.684;9.028;2022-12-13T00:46:02;23.60;;;18.40;;
8413;SDS011;4244;48.684;9.028;2022-12-13T00:48:28;30.83;;;20.00;;
8413;SDS011;4244;48.684;9.028;2022-12-13T00:50:54;24.27;;;18.43;;
8413;SDS011;4244;48.684;9.028;2022-12-13T00:53:19;23.93;;;18.73;;
8413;SDS011;4244;48.684;9.028;2022-12-13T00:55:45;22.90;;;18.60;;
8413;SDS011;4244;48.684;9.028;2022-12-13T00:58:10;26.00;;;20.13;;
8413;SDS011;4244;48.684;9.028;2022-12-13T01:00:36;25.40;;;18.80;;
8413;SDS011;4244;48.684;9.028;2022-12-13T01:03:02;26.50;;;20.40;;
8413;SDS011;4244;48.684;9.028;2022-12-13T01:05:44;30.20;;;21.43;;
8413;SDS011;4244;48.684;9.028;2022-12-13T01:08:13;25.80;;;18.07;;
8413;SDS011;4244;48.684;9.028;2022-12-13T01:10:45;23.97;;;16.53;;
8413;SDS011;4244;48.684;9.028;2022-12-13T01:13:11;20.80;;;16.90;;
8413;SDS011;4244;48.684;9.028;2022-12-13T01:15:42;25.73;;;17.33;;
8413;SDS011;4244;48.684;9.028;2022-12-13T01:18:08;23.23;;;17.03;;
8413;SDS011;4244;48.684;9.028;2022-12-13T01:20:34;22.10;;;16.77;;
8413;SDS011;4244;48.684;9.028;2022-12-13T01:23:00;25.03;;;16.70;;
8413;SDS011;4244;48.684;9.028;2022-12-13T01:25:26;24.13;;;18.30;;
8413;SDS011;4244;48.684;9.028;2022-12-13T01:27:51;24.00;;;16.87;;
8413;SDS011;4244;48.684;9.028;2022-12-13T01:30:17;20.43;;;17.50;;
8413;SDS011;4244;48.684;9.028;2022-12-13T01:32:42;21.60;;;15.60;;
8413;SDS011;4244;48.684;9.028;2022-12-13T01:35:08;19.40;;;15.73;;
8413;SDS011;4244;48.684;9.028;2022-12-13T01:37:34;24.63;;;16.77;;
8413;SDS011;4244;48.684;9.028;2022-12-13T01:40:01;23.60;;;16.50;;
8413;SDS011;4244;48.684;9.028;2022-12-13T01:42:28;24.40;;;17.10;;
8413;SDS011;4244;48.684;9.028;2022-12-13T01:47:39;20.70;;;15.77;;
8413;SDS011;4244;48.684;9.028;2022-12-13T01:50:50;23.47;;;16.60;;
8413;SDS011;4244;48.684;9.028;2022-12-13T01:52:58;20.83;;;15.87;;
8413;SDS011;4244;48.684;9.028;2022-12-13T01:55:26;22.93;;;16.40;;
8413;SDS011;4244;48.684;9.028;2022-12-13T01:57:54;22.17;;;16.93;;
8413;SDS011;4244;48.684;9.028;2022-12-13T02:00:23;24.37;;;17.77;;
8413;SDS011;4244;48.684;9.028;2022-12-13T02:02:49;23.20;;;18.37;;
8413;SDS011;4244;48.684;9.028;2022-12-13T02:05:26;22.67;;;16.30;;
8413;SDS011;4244;48.684;9.028;2022-12-13T02:07:56;22.03;;;17.17;;
8413;SDS011;4244;48.684;9.028;2022-12-13T02:10:22;24.07;;;17.10;;
8413;SDS011;4244;48.684;9.028;2022-12-13T02:12:48;22.67;;;16.97;;
8413;SDS011;4244;48.684;9.028;2022-12-13T02:15:15;24.43;;;16.23;;
8413;SDS011;4244;48.684;9.028;2022-12-13T02:26:46;23.27;;;17.00;;
8413;SDS011;4244;48.684;9.028;2022-12-13T02:32:36;20.23;;;15.23;;
8413;SDS011;4244;48.684;9.028;2022-12-13T02:35:38;25.00;;;16.17;;
8413;SDS011;4244;48.684;9.028;2022-12-13T02:38:10;20.23;;;16.03;;
8413;SDS011;4244;48.684;9.028;2022-12-13T02:43:25;21.50;;;16.93;;
8413;SDS011;4244;48.684;9.028;2022-12-13T02:45:56;25.30;;;17.67;;
8413;SDS011;4244;48.684;9.028;2022-12-13T02:48:25;22.50;;;17.37;;
8413;SDS011;4244;48.684;9.028;2022-12-13T02:50:52;22.77;;;17.97;;
8413;SDS011;4244;48.684;9.028;2022-12-13T02:53:20;25.03;;;17.93;;
8413;SDS011;4244;48.684;9.028;2022-12-13T02:55:46;24.50;;;17.00;;
8413;SDS011;4244;48.684;9.028;2022-12-13T02:58:15;23.43;;;17.20;;
8413;SDS011;4244;48.684;9.028;2022-12-13T03:15:20;25.40;;;16.90;;
8413;SDS011;4244;48.684;9.028;2022-12-13T03:17:59;26.90;;;17.33;;
8413;SDS011;4244;48.684;9.028;2022-12-13T03:20:28;22.67;;;16.80;;
8413;SDS011;4244;48.684;9.028;2022-12-13T03:22:55;22.07;;;15.90;;
8413;SDS011;4244;48.684;9.028;2022-12-13T03:25:22;26.10;;;17.47;;
8413;SDS011;4244;48.684;9.028;2022-12-13T03:27:50;22.20;;;17.63;;
8413;SDS011;4244;48.684;9.028;2022-12-13T03:30:16;22.47;;;18.40;;
8413;SDS011;4244;48.684;9.028;2022-12-13T03:32:42;21.63;;;15.90;;
8413;SDS011;4244;48.684;9.028;2022-12-13T03:35:08;25.70;;;17.00;;
8413;SDS011;4244;48.684;9.028;2022-12-13T03:37:33;19.93;;;16.70;;
8413;SDS011;4244;48.684;9.028;2022-12-13T03:39:59;22.13;;;18.03;;
8413;SDS011;4244;48.684;9.028;2022-12-13T03:42:25;25.47;;;16.70;;
8413;SDS011;4244;48.684;9.028;2022-12-13T03:44:50;23.17;;;17.10;;
8413;SDS011;4244;48.684;9.028;2022-12-13T03:47:16;23.13;;;16.60;;
8413;SDS011;4244;48.684;9.028;2022-12-13T03:49:42;22.13;;;15.90;;
8413;SDS011;4244;48.684;9.028;2022-12-13T03:52:07;22.97;;;17.77;;
8413;SDS011;4244;48.684;9.028;2022-12-13T03:54:33;22.40;;;17.37;;
8413;SDS011;4244;48.684;9.028;2022-12-13T03:56:59;21.57;;;15.70;;
8413;SDS011;4244;48.684;9.028;2022-12-13T03:59:25;19.10;;;16.00;;
8413;SDS011;4244;48.684;9.028;2022-12-13T04:01:51;23.13;;;17.03;;
8413;SDS011;4244;48.684;9.028;2022-12-13T04:04:17;21.87;;;16.43;;
8413;SDS011;4244;48.684;9.028;2022-12-13T04:06:42;21.40;;;15.70;;
8413;SDS011;4244;48.684;9.028;2022-12-13T04:09:08;19.80;;;15.30;;
8413;SDS011;4244;48.684;9.028;2022-12-13T04:11:33;24.67;;;15.83;;
8413;SDS011;4244;48.684;9.028;2022-12-13T04:14:18;19.50;;;15.10;;
8413;SDS011;4244;48.684;9.028;2022-12-13T04:16:44;20.47;;;15.40;;
8413;SDS011;4244;48.684;9.028;2022-12-13T04:19:09;21.47;;;15.67;;
8413;SDS011;4244;48.684;9.028;2022-12-13T04:21:35;21.40;;;16.10;;
8413;SDS011;4244;48.684;9.028;2022-12-13T04:24:00;22.73;;;16.47;;
8413;SDS011;4244;48.684;9.028;2022-12-13T04:26:26;19.30;;;15.07;;
8413;SDS011;4244;48.684;9.028;2022-12-13T04:28:52;24.33;;;17.50;;
8413;SDS011;4244;48.684;9.028;2022-12-13T04:31:18;25.60;;;17.00;;
8413;SDS011;4244;48.684;9.028;2022-12-13T04:33:43;21.90;;;15.23;;
8413;SDS011;4244;48.684;9.028;2022-12-13T04:36:09;21.37;;;16.53;;
8413;SDS011;4244;48.684;9.028;2022-12-13T04:38:34;27.43;;;18.90;;
8413;SDS011;4244;48.684;9.028;2022-12-13T04:41:04;23.30;;;19.17;;
8413;SDS011;4244;48.684;9.028;2022-12-13T04:43:35;23.00;;;17.57;;
8413;SDS011;4244;48.684;9.028;2022-12-13T04:46:00;26.07;;;19.23;;
8413;SDS011;4244;48.684;9.028;2022-12-13T04:48:26;23.97;;;18.83;;
8413;SDS011;4244;48.684;9.028;2022-12-13T04:50:51;27.70;;;18.50;;
8413;SDS011;4244;48.684;9.028;2022-12-13T04:53:17;25.10;;;19.47;;
8413;SDS011;4244;48.684;9.028;2022-12-13T04:55:43;21.77;;;17.10;;
8413;SDS011;4244;48.684;9.028;2022-12-13T04:58:08;23.63;;;17.80;;
8413;SDS011;4244;48.684;9.028;2022-12-13T05:00:34;23.00;;;17.10;;
8413;SDS011;4244;48.684;9.028;2022-12-13T05:02:59;24.70;;;19.30;;
8413;SDS011;4244;48.684;9.028;2022-12-13T05:05:25;24.70;;;18.20;;
8413;SDS011;4244;48.684;9.028;2022-12-13T05:07:50;23.30;;;17.80;;
8413;SDS011;4244;48.684;9.028;2022-12-13T05:10:16;24.73;;;16.90;;
8413;SDS011;4244;48.684;9.028;2022-12-13T05:12:42;26.50;;;18.07;;
8413;SDS011;4244;48.684;9.028;2022-12-13T05:15:07;23.50;;;17.20;;
8413;SDS011;4244;48.684;9.028;2022-12-13T05:17:33;23.50;;;16.87;;
8413;SDS011;4244;48.684;9.028;2022-12-13T05:19:58;20.47;;;16.43;;
8413;SDS011;4244;48.684;9.028;2022-12-13T05:22:24;23.13;;;17.70;;
8413;SDS011;4244;48.684;9.028;2022-12-13T05:24:50;24.93;;;16.47;;
8413;SDS011;4244;48.684;9.028;2022-12-13T05:27:16;22.67;;;17.17;;
8413;SDS011;4244;48.684;9.028;2022-12-13T05:29:42;23.43;;;17.57;;
8413;SDS011;4244;48.684;9.028;2022-12-13T05:32:07;25.50;;;18.57;;
8413;SDS011;4244;48.684;9.028;2022-12-13T05:34:33;25.30;;;18.20;;
8413;SDS011;4244;48.684;9.028;2022-12-13T05:36:59;24.90;;;19.50;;
8413;SDS011;4244;48.684;9.028;2022-12-13T05:39:24;28.07;;;20.43;;
8413;SDS011;4244;48.684;9.028;2022-12-13T05:41:50;25.90;;;19.17;;
8413;SDS011;4244;48.684;9.028;2022-12-13T05:44:16;24.87;;;18.30;;
8413;SDS011;4244;48.684;9.028;2022-12-13T05:46:41;22.10;;;18.00;;
8413;SDS011;4244;48.684;9.028;2022-12-13T05:49:07;21.57;;;18.30;;
8413;SDS011;4244;48.684;9.028;2022-12-13T05:51:33;24.50;;;17.77;;
8413;SDS011;4244;48.684;9.028;2022-12-13T05:53:58;27.13;;;17.80;;
8413;SDS011;4244;48.684;9.028;2022-12-13T05:56:24;26.30;;;18.47;;
8413;SDS011;4244;48.684;9.028;2022-12-13T05:58:50;24.67;;;18.40;;
8413;SDS011;4244;48.684;9.028;2022-12-13T06:01:15;23.50;;;17.37;;
8413;SDS011;4244;48.684;9.028;2022-12-13T06:03:41;25.60;;;18.90;;
8413;SDS011;4244;48.684;9.028;2022-12-13T06:06:19;25.00;;;19.23;;
8413;SDS011;4244;48.684;9.028;2022-12-13T06:08:45;24.53;;;18.57;;
8413;SDS011;4244;48.684;9.028;2022-12-13T06:11:11;27.47;;;18.70;;
8413;SDS011;4244;48.684;9.028;2022-12-13T06:13:37;25.90;;;18.67;;
8413;SDS011;4244;48.684;9.028;2022-12-13T06:16:06;30.27;;;20.43;;
8413;SDS011;4244;48.684;9.028;2022-12-13T06:18:32;29.97;;;21.47;;
8413;SDS011;4244;48.684;9.028;2022-12-13T06:21:00;32.80;;;23.53;;
8413;SDS011;4244;48.684;9.028;2022-12-13T06:23:28;27.87;;;20.63;;
8413;SDS011;4244;48.684;9.028;2022-12-13T06:25:55;28.67;;;21.40;;
8413;SDS011;4244;48.684;9.028;2022-12-13T06:28:21;27.60;;;21.27;;
8413;SDS011;4244;48.684;9.028;2022-12-13T06:30:49;26.10;;;20.10;;
8413;SDS011;4244;48.684;9.028;2022-12-13T06:33:16;27.67;;;20.40;;
8413;SDS011;4244;48.684;9.028;2022-12-13T06:35:43;26.17;;;18.50;;
8413;SDS011;4244;48.684;9.028;2022-12-13T06:38:09;25.93;;;19.07;;
8413;SDS011;4244;48.684;9.028;2022-12-13T06:40:34;26.20;;;18.83;;
8413;SDS011;4244;48.684;9.028;2022-12-13T06:43:00;25.03;;;19.63;;
8413;SDS011;4244;48.684;9.028;2022-12-13T06:45:26;24.17;;;18.77;;
8413;SDS011;4244;48.684;9.028;2022-12-13T06:47:51;23.23;;;17.73;;
8413;SDS011;4244;48.684;9.028;2022-12-13T06:50:17;23.87;;;17.60;;
8413;SDS011;4244;48.684;9.028;2022-12-13T06:52:44;24.00;;;16.53;;
8413;SDS011;4244;48.684;9.028;2022-12-13T06:55:10;23.63;;;18.03;;
8413;SDS011;4244;48.684;9.028;2022-12-13T06:57:36;24.20;;;17.17;;
8413;SDS011;4244;48.684;9.028;2022-12-13T07:00:02;26.47;;;16.97;;
8413;SDS011;4244;48.684;9.028;2022-12-13T07:02:29;25.13;;;17.50;;
8413;SDS011;4244;48.684;9.028;2022-12-13T07:04:55;26.10;;;18.43;;
8413;SDS011;4244;48.684;9.028;2022-12-13T07:07:21;24.40;;;18.03;;
8413;SDS011;4244;48.684;9.028;2022-12-13T07:09:47;25.50;;;17.53;;
8413;SDS011;4244;48.684;9.028;2022-12-13T07:12:12;24.33;;;16.83;;
8413;SDS011;4244;48.684;9.028;2022-12-13T07:14:38;23.90;;;17.23;;
8413;SDS011;4244;48.684;9.028;2022-12-13T07:17:03;24.73;;;16.27;;
8413;SDS011;4244;48.684;9.028;2022-12-13T07:19:29;22.60;;;16.40;;
8413;SDS011;4244;48.684;9.028;2022-12-13T07:21:55;24.93;;;17.83;;
8413;SDS011;4244;48.684;9.028;2022-12-13T07:24:21;22.67;;;16.60;;
8413;SDS011;4244;48.684;9.028;2022-12-13T07:26:47;23.80;;;18.27;;
8413;SDS011;4244;48.684;9.028;2022-12-13T07:29:12;34.07;;;22.50;;
8413;SDS011;4244;48.684;9.028;2022-12-13T07:31:38;33.67;;;22.30;;
8413;SDS011;4244;48.684;9.028;2022-12-13T07:34:04;37.83;;;23.00;;
8413;SDS011;4244;48.684;9.028;2022-12-13T07:36:29;36.10;;;23.53;;
8413;SDS011;4244;48.684;9.028;2022-12-13T07:38:55;36.67;;;24.37;;
8413;SDS011;4244;48.684;9.028;2022-12-13T07:41:22;38.43;;;25.33;;
8413;SDS011;4244;48.684;9.028;2022-12-13T07:43:48;39.00;;;24.77;;
8413;SDS011;4244;48.684;9.028;2022-12-13T07:46:14;40.03;;;26.37;;
8413;SDS011;4244;48.684;9.028;2022-12-13T07:48:40;39.80;;;24.57;;
8413;SDS011;4244;48.684;9.028;2022-12-13T07:51:06;35.17;;;23.57;;
8413;SDS011;4244;48.684;9.028;2022-12-13T07:53:35;35.57;;;25.67;;
8413;SDS011;4244;48.684;9.028;2022-12-13T07:56:04;31.97;;;22.93;;
8413;SDS011;4244;48.684;9.028;2022-12-13T07:58:31;33.93;;;22.20;;
8413;SDS011;4244;48.684;9.028;2022-12-13T08:00:58;33.60;;;26.03;;
8413;SDS011;4244;48.684;9.028;2022-12-13T08:03:25;34.83;;;23.87;;
8413;SDS011;4244;48.684;9.028;2022-12-13T08:05:58;36.50;;;23.30;;
8413;SDS011;4244;48.684;9.028;2022-12-13T08:08:28;30.27;;;22.43;;
8413;SDS011;4244;48.684;9.028;2022-12-13T08:10:54;32.63;;;23.77;;
8413;SDS011;4244;48.684;9.028;2022-12-13T08:13:19;37.77;;;25.63;;
8413;SDS011;4244;48.684;9.028;2022-12-13T08:15:45;34.80;;;23.43;;
8413;SDS011;4244;48.684;9.028;2022-12-13T08:18:11;27.77;;;21.93;;
8413;SDS011;4244;48.684;9.028;2022-12-13T08:20:36;29.67;;;21.20;;
8413;SDS011;4244;48.684;9.028;2022-12-13T08:23:02;31.60;;;23.37;;
8413;SDS011;4244;48.684;9.028;2022-12-13T08:25:28;29.50;;;20.93;;
8413;SDS011;4244;48.684;9.028;2022-12-13T08:27:54;28.97;;;21.37;;
8413;SDS011;4244;48.684;9.028;2022-12-13T08:30:20;25.50;;;20.10;;
8413;SDS011;4244;48.684;9.028;2022-12-13T08:32:47;26.53;;;19.93;;
8413;SDS011;4244;48.684;9.028;2022-12-13T08:35:13;37.23;;;21.53;;
8413;SDS011;4244;48.684;9.028;2022-12-13T08:37:39;27.33;;;21.37;;
8413;SDS011;4244;48.684;9.028;2022-12-13T08:40:05;27.47;;;19.37;;
8413;SDS011;4244;48.684;9.028;2022-12-13T08:42:31;33.10;;;22.63;;
8413;SDS011;4244;48.684;9.028;2022-12-13T08:44:56;30.10;;;20.97;;
8413;SDS011;4244;48.684;9.028;2022-12-13T08:47:23;28.10;;;18.97;;
8413;SDS011;4244;48.684;9.028;2022-12-13T08:49:49;28.33;;;20.70;;
8413;SDS011;4244;48.684;9.028;2022-12-13T08:52:16;27.83;;;20.43;;
8413;SDS011;4244;48.684;9.028;2022-12-13T08:54:43;26.40;;;20.27;;
8413;SDS011;4244;48.684;9.028;2022-12-13T08:57:08;27.63;;;21.20;;
8413;SDS011;4244;48.684;9.028;2022-12-13T08:59:34;25.40;;;20.10;;
8413;SDS011;4244;48.684;9.028;2022-12-13T09:02:00;22.30;;;18.73;;
8413;SDS011;4244;48.684;9.028;2022-12-13T09:04:25;22.77;;;18.10;;
8413;SDS011;4244;48.684;9.028;2022-12-13T09:06:51;24.43;;;18.47;;
8413;SDS011;4244;48.684;9.028;2022-12-13T09:09:16;22.63;;;15.00;;
8413;SDS011;4244;48.684;9.028;2022-12-13T09:11:42;18.90;;;15.20;;
8413;SDS011;4244;48.684;9.028;2022-12-13T09:14:08;18.53;;;14.27;;
8413;SDS011;4244;48.684;9.028;2022-12-13T09:16:33;19.20;;;15.10;;
8413;SDS011;4244;48.684;9.028;2022-12-13T09:19:03;15.47;;;13.00;;
8413;SDS011;4244;48.684;9.028;2022-12-13T09:21:29;15.63;;;6.93;;
8413;SDS011;4244;48.684;9.028;2022-12-13T09:23:55;27.07;;;12.53;;
8413;SDS011;4244;48.684;9.028;2022-12-13T09:26:20;17.50;;;10.70;;
8413;SDS011;4244;48.684;9.028;2022-12-13T09:28:46;13.00;;;9.80;;
8413;SDS011;4244;48.684;9.028;2022-12-13T09:31:12;14.30;;;11.80;;
8413;SDS011;4244;48.684;9.028;2022-12-13T09:33:39;14.30;;;12.20;;
8413;SDS011;4244;48.684;9.028;2022-12-13T09:36:06;17.80;;;14.33;;
8413;SDS011;4244;48.684;9.028;2022-12-13T09:38:33;15.63;;;13.90;;
8413;SDS011;4244;48.684;9.028;2022-12-13T09:41:02;16.43;;;14.03;;
8413;SDS011;4244;48.684;9.028;2022-12-13T09:43:36;17.20;;;14.17;;
8413;SDS011;4244;48.684;9.028;2022-12-13T09:46:04;19.17;;;15.20;;
8413;SDS011;4244;48.684;9.028;2022-12-13T09:48:32;17.23;;;14.80;;
8413;SDS011;4244;48.684;9.028;2022-12-13T09:50:58;17.03;;;13.90;;
8413;SDS011;4244;48.684;9.028;2022-12-13T09:53:24;16.17;;;14.40;;
8413;SDS011;4244;48.684;9.028;2022-12-13T09:55:50;18.20;;;14.30;;
8413;SDS011;4244;48.684;9.028;2022-12-13T09:58:17;14.67;;;12.40;;
8413;SDS011;4244;48.684;9.028;2022-12-13T10:04:08;14.67;;;12.30;;
8413;SDS011;4244;48.684;9.028;2022-12-13T10:06:36;15.53;;;13.80;;
8413;SDS011;4244;48.684;9.028;2022-12-13T10:09:02;15.83;;;13.43;;
8413;SDS011;4244;48.684;9.028;2022-12-13T10:11:32;15.93;;;13.27;;
8413;SDS011;4244;48.684;9.028;2022-12-13T10:14:09;14.37;;;12.73;;
8413;SDS011;4244;48.684;9.028;2022-12-13T10:17:13;15.30;;;12.97;;
8413;SDS011;4244;48.684;9.028;2022-12-13T10:19:40;16.53;;;14.77;;
8413;SDS011;4244;48.684;9.028;2022-12-13T10:22:10;15.60;;;13.53;;
8413;SDS011;4244;48.684;9.028;2022-12-13T10:27:33;15.20;;;13.70;;
8413;SDS011;4244;48.684;9.028;2022-12-13T10:30:18;15.37;;;13.53;;
8413;SDS011;4244;48.684;9.028;2022-12-13T10:32:59;14.40;;;10.57;;
8413;SDS011;4244;48.684;9.028;2022-12-13T10:35:27;16.10;;;12.77;;
8413;SDS011;4244;48.684;9.028;2022-12-13T10:37:54;15.90;;;14.30;;
8413;SDS011;4244;48.684;9.028;2022-12-13T10:45:42;15.90;;;12.00;;
8413;SDS011;4244;48.684;9.028;2022-12-13T10:48:18;12.80;;;11.50;;
8413;SDS011;4244;48.684;9.028;2022-12-13T10:50:54;14.03;;;12.63;;
8413;SDS011;4244;48.684;9.028;2022-12-13T10:53:22;14.17;;;12.67;;
8413;SDS011;4244;48.684;9.028;2022-12-13T10:55:55;12.73;;;11.50;;
8413;SDS011;4244;48.684;9.028;2022-12-13T10:58:21;14.03;;;12.47;;
8413;SDS011;4244;48.684;9.028;2022-12-13T11:00:46;13.90;;;12.50;;
8413;SDS011;4244;48.684;9.028;2022-12-13T11:03:32;15.17;;;13.57;;
8413;SDS011;4244;48.684;9.028;2022-12-13T11:06:16;12.80;;;11.50;;
8413;SDS011;4244;48.684;9.028;2022-12-13T11:08:42;13.90;;;12.50;;
8413;SDS011;4244;48.684;9.028;2022-12-13T11:11:08;14.60;;;13.10;;
8413;SDS011;4244;48.684;9.028;2022-12-13T11:13:37;13.23;;;11.93;;
8413;SDS011;4244;48.684;9.028;2022-12-13T11:16:25;14.47;;;12.97;;
8413;SDS011;4244;48.684;9.028;2022-12-13T11:18:55;11.50;;;10.40;;
8413;SDS011;4244;48.684;9.028;2022-12-13T11:21:27;13.83;;;12.53;;
8413;SDS011;4244;48.684;9.028;2022-12-13T11:23:55;13.40;;;11.83;;
8413;SDS011;4244;48.684;9.028;2022-12-13T11:26:24;11.63;;;10.43;;
8413;SDS011;4244;48.684;9.028;2022-12-13T11:34:53;12.70;;;11.40;;
8413;SDS011;4244;48.684;9.028;2022-12-13T11:40:22;6.07;;;4.43;;
8413;SDS011;4244;48.684;9.028;2022-12-13T11:42:54;5.27;;;4.50;;
8413;SDS011;4244;48.684;9.028;2022-12-13T11:45:26;7.20;;;5.27;;
8413;SDS011;4244;48.684;9.028;2022-12-13T11:48:04;6.83;;;5.90;;
8413;SDS011;4244;48.684;9.028;2022-12-13T11:50:46;9.67;;;8.50;;
8413;SDS011;4244;48.684;9.028;2022-12-13T12:01:20;12.20;;;11.00;;
8413;SDS011;4244;48.684;9.028;2022-12-13T12:03:53;12.07;;;10.83;;
8413;SDS011;4244;48.684;9.028;2022-12-13T12:06:28;11.47;;;10.30;;
8413;SDS011;4244;48.684;9.028;2022-12-13T12:08:58;12.60;;;11.40;;
8413;SDS011;4244;48.684;9.028;2022-12-13T12:11:27;10.13;;;9.23;;
8413;SDS011;4244;48.684;9.028;2022-12-13T12:14:17;10.63;;;8.80;;
8413;SDS011;4244;48.684;9.028;2022-12-13T12:17:05;11.90;;;10.67;;
8413;SDS011;4244;48.684;9.028;2022-12-13T12:19:37;12.93;;;11.63;;
8413;SDS011;4244;48.684;9.028;2022-12-13T12:30:22;12.20;;;10.87;;
8413;SDS011;4244;48.684;9.028;2022-12-13T12:51:23;11.63;;;10.07;;
8413;SDS011;4244;48.684;9.028;2022-12-13T12:54:05;11.20;;;9.83;;
8413;SDS011;4244;48.684;9.028;2022-12-13T12:56:37;13.13;;;10.20;;
8413;SDS011;4244;48.684;9.028;2022-12-13T12:59:11;11.00;;;10.00;;
8413;SDS011;4244;48.684;9.028;2022-12-13T13:01:54;10.40;;;9.30;;
8413;SDS011;4244;48.684;9.028;2022-12-13T13:04:23;11.70;;;10.50;;
8413;SDS011;4244;48.684;9.028;2022-12-13T13:06:55;12.67;;;9.60;;
8413;SDS011;4244;48.684;9.028;2022-12-13T13:09:39;12.07;;;9.97;;
8413;SDS011;4244;48.684;9.028;2022-12-13T13:12:05;11.40;;;10.20;;
8413;SDS011;4244;48.684;9.028;2022-12-13T13:14:32;8.23;;;3.63;;
8413;SDS011;4244;48.684;9.028;2022-12-13T13:16:59;4.60;;;4.03;;
8413;SDS011;4244;48.684;9.028;2022-12-13T13:19:47;6.30;;;4.93;;
8413;SDS011;4244;48.684;9.028;2022-12-13T13:27:30;7.03;;;4.40;;
8413;SDS011;4244;48.684;9.028;2022-12-13T13:30:30;5.93;;;5.33;;
8413;SDS011;4244;48.684;9.028;2022-12-13T13:32:53;9.30;;;7.90;;
8413;SDS011;4244;48.684;9.028;2022-12-13T13:38:00;9.60;;;8.70;;
8413;SDS011;4244;48.684;9.028;2022-12-13T13:40:28;8.90;;;8.00;;
8413;SDS011;4244;48.684;9.028;2022-12-13T13:57:08;10.97;;;8.83;;
8413;SDS011;4244;48.684;9.028;2022-12-13T14:28:50;10.00;;;8.37;;
8413;SDS011;4244;48.684;9.028;2022-12-13T14:31:25;8.90;;;7.23;;
8413;SDS011;4244;48.684;9.028;2022-12-13T14:34:03;11.27;;;8.37;;
8413;SDS011;4244;48.684;9.028;2022-12-13T14:36:32;9.03;;;8.03;;
8413;SDS011;4244;48.684;9.028;2022-12-13T14:41:51;11.13;;;8.50;;
8413;SDS011;4244;48.684;9.028;2022-12-13T14:44:22;9.27;;;8.27;;
8413;SDS011;4244;48.684;9.028;2022-12-13T14:46:53;10.70;;;8.40;;
8413;SDS011;4244;48.684;9.028;2022-12-13T14:49:20;10.20;;;7.80;;
8413;SDS011;4244;48.684;9.028;2022-12-13T14:51:47;10.40;;;8.10;;
8413;SDS011;4244;48.684;9.028;2022-12-13T14:54:19;10.17;;;6.90;;
8413;SDS011;4244;48.684;9.028;2022-12-13T14:56:57;9.93;;;7.40;;
8413;SDS011;4244;48.684;9.028;2022-12-13T14:59:27;9.00;;;6.60;;
8413;SDS011;4244;48.684;9.028;2022-12-13T15:01:57;8.73;;;7.07;;
8413;SDS011;4244;48.684;9.028;2022-12-13T15:04:26;11.20;;;7.83;;
8413;SDS011;4244;48.684;9.028;2022-12-13T15:07:06;9.87;;;8.20;;
8413;SDS011;4244;48.684;9.028;2022-12-13T15:09:38;9.60;;;7.30;;
8413;SDS011;4244;48.684;9.028;2022-12-13T15:12:13;10.93;;;8.37;;
8413;SDS011;4244;48.684;9.028;2022-12-13T15:14:42;13.07;;;8.63;;
8413;SDS011;4244;48.684;9.028;2022-12-13T15:20:15;10.00;;;7.23;;
8413;SDS011;4244;48.684;9.028;2022-12-13T15:22:58;9.80;;;7.40;;
8413;SDS011;4244;48.684;9.028;2022-12-13T15:25:26;9.50;;;7.90;;
8413;SDS011;4244;48.684;9.028;2022-12-13T15:27:52;10.77;;;7.03;;
8413;SDS011;4244;48.684;9.028;2022-12-13T15:30:18;10.83;;;7.93;;
8413;SDS011;4244;48.684;9.028;2022-12-13T15:33:04;9.30;;;6.93;;
8413;SDS011;4244;48.684;9.028;2022-12-13T15:35:42;11.20;;;9.10;;
8413;SDS011;4244;48.684;9.028;2022-12-13T15:38:12;10.83;;;7.93;;
8413;SDS011;4244;48.684;9.028;2022-12-13T15:40:43;12.53;;;7.83;;
8413;SDS011;4244;48.684;9.028;2022-12-13T15:43:14;11.70;;;8.67;;
8413;SDS011;4244;48.684;9.028;2022-12-13T15:45:45;13.20;;;8.57;;
8413;SDS011;4244;48.684;9.028;2022-12-13T15:53:38;15.40;;;9.10;;
8413;SDS011;4244;48.684;9.028;2022-12-13T15:58:59;15.10;;;8.83;;
8413;SDS011;4244;48.684;9.028;2022-12-13T16:03:51;14.70;;;9.10;;
8413;SDS011;4244;48.684;9.028;2022-12-13T16:06:17;16.43;;;9.70;;
8413;SDS011;4244;48.684;9.028;2022-12-13T16:08:47;13.70;;;9.10;;
8413;SDS011;4244;48.684;9.028;2022-12-13T16:11:15;15.13;;;9.57;;
8413;SDS011;4244;48.684;9.028;2022-12-13T16:19:43;10.97;;;8.30;;
8413;SDS011;4244;48.684;9.028;2022-12-13T16:22:10;11.23;;;8.43;;
8413;SDS011;4244;48.684;9.028;2022-12-13T16:24:36;13.83;;;9.70;;
8413;SDS011;4244;48.684;9.028;2022-12-13T16:27:02;11.43;;;8.37;;
8413;SDS011;4244;48.684;9.028;2022-12-13T16:29:27;10.63;;;7.77;;
8413;SDS011;4244;48.684;9.028;2022-12-13T16:31:53;12.47;;;8.87;;
8413;SDS011;4244;48.684;9.028;2022-12-13T16:34:21;12.87;;;9.00;;
8413;SDS011;4244;48.684;9.028;2022-12-13T16:36:47;13.40;;;8.83;;
8413;SDS011;4244;48.684;9.028;2022-12-13T16:39:13;10.17;;;7.30;;
8413;SDS011;4244;48.684;9.028;2022-12-13T16:41:47;9.83;;;8.30;;
8413;SDS011;4244;48.684;9.028;2022-12-13T16:44:17;13.10;;;8.90;;
8413;SDS011;4244;48.684;9.028;2022-12-13T16:46:46;13.80;;;9.50;;
8413;SDS011;4244;48.684;9.028;2022-12-13T16:49:19;11.30;;;8.60;;
8413;SDS011;4244;48.684;9.028;2022-12-13T16:51:49;11.60;;;9.20;;
8413;SDS011;4244;48.684;9.028;2022-12-13T16:54:15;10.10;;;8.10;;
8413;SDS011;4244;48.684;9.028;2022-12-13T16:56:42;11.30;;;8.00;;
8413;SDS011;4244;48.684;9.028;2022-12-13T16:59:12;10.10;;;8.30;;
8413;SDS011;4244;48.684;9.028;2022-12-13T17:01:39;11.10;;;8.63;;
8413;SDS011;4244;48.684;9.028;2022-12-13T17:04:07;11.47;;;7.27;;
8413;SDS011;4244;48.684;9.028;2022-12-13T17:06:34;11.67;;;9.40;;
8413;SDS011;4244;48.684;9.028;2022-12-13T17:09:00;10.47;;;7.80;;
8413;SDS011;4244;48.684;9.028;2022-12-13T17:11:26;11.47;;;9.10;;
8413;SDS011;4244;48.684;9.028;2022-12-13T17:13:52;13.57;;;9.40;;
8413;SDS011;4244;48.684;9.028;2022-12-13T17:16:18;13.90;;;9.23;;
8413;SDS011;4244;48.684;9.028;2022-12-13T17:18:45;13.57;;;8.73;;
8413;SDS011;4244;48.684;9.028;2022-12-13T17:21:11;13.77;;;10.27;;
8413;SDS011;4244;48.684;9.028;2022-12-13T17:23:37;12.50;;;8.90;;
8413;SDS011;4244;48.684;9.028;2022-12-13T17:26:06;14.87;;;10.13;;
8413;SDS011;4244;48.684;9.028;2022-12-13T17:28:33;12.87;;;9.90;;
8413;SDS011;4244;48.684;9.028;2022-12-13T17:31:06;14.00;;;11.07;;
8413;SDS011;4244;48.684;9.028;2022-12-13T17:33:34;14.90;;;10.03;;
8413;SDS011;4244;48.684;9.028;2022-12-13T17:36:01;15.30;;;10.50;;
8413;SDS011;4244;48.684;9.028;2022-12-13T17:38:27;15.43;;;11.00;;
8413;SDS011;4244;48.684;9.028;2022-12-13T17:40:53;12.07;;;9.63;;
8413;SDS011;4244;48.684;9.028;2022-12-13T17:43:19;16.70;;;10.50;;
8413;SDS011;4244;48.684;9.028;2022-12-13T17:45:44;11.90;;;9.20;;